Terminal Aerodrome Forecast
Issued by NWS Bismarck, ND

Home | Current Version | Previous Version | Text Only | Print | Product List | Glossary On
Versions: 1 2 3 4 5 6 7 8 9 10 11 12 13 14 15 16 17 18 19 20 21 22 23 24 25 26 27 28
000
FTUS43 KBIS 232300
TAFISN
TAF
KISN 232339Z 2400/2424 12015G23KT P6SM FEW050
     FM240200 11013KT P6SM BKN080
     FM240400 11013KT P6SM VCTS BKN080CB
      TEMPO 2405/2407 VRB15G25KT 4SM -TSRA BKN060CB
     FM240900 12012KT P6SM SCT250
     FM242300 15010KT P6SM BKN170=

USA.gov is the U.S. government's official web portal to all federal, state and local government web resources and services.